createdAt,value
2023-05-07T00:02:16.684Z,99.90
2023-05-07T00:04:43.674Z,99.90
2023-05-07T00:07:10.553Z,99.90
2023-05-07T00:09:37.657Z,99.90
2023-05-07T00:12:04.710Z,99.90
2023-05-07T00:14:31.843Z,99.90
2023-05-07T00:16:59.284Z,99.90
2023-05-07T00:19:26.254Z,99.90
2023-05-07T00:21:55.289Z,99.90
2023-05-07T00:24:22.255Z,99.90
2023-05-07T00:26:49.291Z,99.90
2023-05-07T00:29:16.529Z,99.90
2023-05-07T00:31:43.417Z,99.90
2023-05-07T00:34:10.657Z,99.90
2023-05-07T00:36:37.728Z,99.90
2023-05-07T00:39:04.792Z,99.90
2023-05-07T00:41:32.476Z,99.90
2023-05-07T00:43:59.672Z,99.90
2023-05-07T00:46:27.161Z,99.90
2023-05-07T00:48:55.231Z,99.90
2023-05-07T00:51:24.626Z,99.90
2023-05-07T00:53:52.233Z,99.90
2023-05-07T00:56:19.232Z,99.90
2023-05-07T00:58:46.134Z,99.90
2023-05-07T01:01:13.110Z,99.90
2023-05-07T01:03:40.223Z,99.90
2023-05-07T01:06:08.696Z,99.90
2023-05-07T01:08:37.363Z,99.90
2023-05-07T01:11:04.766Z,99.90
2023-05-07T01:13:32.198Z,99.90
2023-05-07T01:15:59.256Z,99.90
2023-05-07T01:18:26.794Z,99.90
2023-05-07T01:20:53.752Z,99.90
2023-05-07T01:23:21.199Z,99.90
2023-05-07T01:25:54.809Z,99.90
2023-05-07T01:28:21.869Z,99.90
2023-05-07T01:30:53.081Z,99.90
2023-05-07T01:33:25.240Z,99.90
2023-05-07T01:35:54.103Z,99.90
2023-05-07T01:38:22.908Z,99.90
2023-05-07T01:40:50.007Z,99.90
2023-05-07T01:43:17.399Z,99.90
2023-05-07T01:45:45.566Z,99.90
2023-05-07T01:48:14.014Z,99.90
2023-05-07T01:50:41.580Z,99.90
2023-05-07T01:53:08.562Z,99.90
2023-05-07T01:55:38.088Z,99.90
2023-05-07T01:58:05.386Z,99.90
2023-05-07T02:00:33.068Z,99.90
2023-05-07T02:03:00.298Z,99.90
2023-05-07T02:05:27.355Z,99.90
2023-05-07T02:07:54.256Z,99.90
2023-05-07T02:10:21.110Z,99.90
2023-05-07T02:12:48.083Z,99.90
2023-05-07T02:15:15.146Z,99.90
2023-05-07T02:18:03.486Z,99.90
2023-05-07T02:20:30.537Z,99.90
2023-05-07T02:22:57.433Z,99.90
2023-05-07T02:25:24.424Z,99.90
2023-05-07T02:27:51.376Z,99.90
2023-05-07T02:30:18.333Z,99.90
2023-05-07T02:32:46.022Z,99.90
2023-05-07T02:35:13.030Z,99.90
2023-05-07T02:37:40.087Z,99.90
2023-05-07T02:40:07.639Z,99.90
2023-05-07T02:42:34.735Z,99.90
2023-05-07T02:45:01.895Z,99.90
2023-05-07T02:47:29.678Z,99.90
2023-05-07T02:49:56.719Z,99.90
2023-05-07T02:52:23.733Z,99.90
2023-05-07T02:54:50.604Z,99.90
2023-05-07T02:57:17.747Z,99.90
2023-05-07T02:59:44.831Z,99.90
2023-05-07T03:02:11.762Z,99.90
2023-05-07T03:04:39.986Z,99.90
2023-05-07T03:07:06.959Z,99.90
2023-05-07T03:09:34.134Z,99.90
2023-05-07T03:12:01.100Z,99.90
2023-05-07T03:14:28.595Z,99.90
2023-05-07T03:16:55.583Z,99.90
2023-05-07T03:19:22.845Z,99.90
2023-05-07T03:21:49.665Z,99.90
2023-05-07T03:24:16.890Z,99.90
2023-05-07T03:26:43.734Z,99.90
2023-05-07T03:29:10.549Z,99.90
2023-05-07T03:31:37.549Z,99.90
2023-05-07T03:34:05.184Z,99.90
2023-05-07T03:36:32.635Z,99.90
2023-05-07T03:38:59.483Z,99.90
2023-05-07T03:41:27.051Z,99.90
2023-05-07T03:43:54.353Z,99.90
2023-05-07T03:46:21.600Z,99.90
2023-05-07T03:48:48.766Z,99.90
2023-05-07T03:51:15.667Z,99.90
2023-05-07T03:53:42.690Z,99.90
2023-05-07T03:56:09.581Z,99.90
2023-05-07T03:58:36.537Z,99.90
2023-05-07T04:01:03.861Z,99.90
2023-05-07T04:03:30.944Z,99.90
2023-05-07T04:05:57.963Z,99.90
2023-05-07T04:08:24.931Z,99.90
2023-05-07T04:10:59.197Z,99.90
2023-05-07T04:13:26.691Z,99.90
2023-05-07T04:15:54.804Z,99.90
2023-05-07T04:18:22.453Z,99.90
2023-05-07T04:20:52.567Z,99.90
2023-05-07T04:23:19.409Z,99.90
2023-05-07T04:25:46.588Z,99.90
2023-05-07T04:28:13.651Z,99.90
2023-05-07T04:30:40.686Z,99.90
2023-05-07T04:33:07.999Z,99.90
2023-05-07T04:35:35.063Z,99.90
2023-05-07T04:38:02.890Z,99.90
2023-05-07T04:40:29.792Z,99.90
2023-05-07T04:42:57.007Z,99.90
2023-05-07T04:45:24.176Z,99.90
2023-05-07T04:47:51.081Z,99.90
2023-05-07T04:50:20.518Z,99.90
2023-05-07T04:52:47.493Z,99.90
2023-05-07T04:55:14.386Z,99.90
2023-05-07T04:57:42.619Z,99.90
2023-05-07T05:00:10.178Z,99.90
2023-05-07T05:02:37.295Z,99.90
2023-05-07T05:05:04.424Z,99.90
2023-05-07T05:07:31.343Z,99.90
2023-05-07T05:09:58.747Z,99.90
2023-05-07T05:12:26.040Z,99.90
2023-05-07T05:14:53.141Z,99.90
2023-05-07T05:17:20.101Z,99.90
2023-05-07T05:19:47.143Z,99.90
2023-05-07T05:22:14.070Z,99.90
2023-05-07T05:24:40.919Z,99.90
2023-05-07T05:27:07.764Z,99.90
2023-05-07T05:29:34.720Z,99.90
2023-05-07T05:32:01.870Z,99.90
2023-05-07T05:34:28.971Z,99.90
2023-05-07T05:36:56.540Z,99.90
2023-05-07T05:39:24.275Z,99.90
2023-05-07T05:41:51.128Z,99.90
2023-05-07T05:44:18.024Z,99.90
2023-05-07T05:46:45.130Z,99.90
2023-05-07T05:49:12.116Z,99.90
2023-05-07T05:51:38.975Z,99.90
2023-05-07T05:54:05.952Z,99.90
2023-05-07T05:56:32.927Z,99.90
2023-05-07T05:58:59.924Z,99.90
2023-05-07T06:01:26.893Z,99.90
2023-05-07T06:03:54.039Z,99.90
2023-05-07T06:06:20.978Z,99.90
2023-05-07T06:08:47.996Z,99.90
2023-05-07T06:11:14.979Z,99.90
2023-05-07T06:13:41.832Z,99.90
2023-05-07T06:16:09.207Z,99.90
2023-05-07T06:18:37.102Z,99.90
2023-05-07T06:21:04.454Z,99.90
2023-05-07T06:23:31.289Z,99.90
2023-05-07T06:25:58.135Z,99.90
2023-05-07T06:28:25.136Z,99.90
2023-05-07T06:30:52.076Z,99.90
2023-05-07T06:33:20.692Z,99.90
2023-05-07T06:35:47.841Z,99.90
2023-05-07T06:38:14.689Z,99.90
2023-05-07T06:40:41.505Z,99.90
2023-05-07T06:43:08.387Z,99.90
2023-05-07T06:45:35.530Z,99.90
2023-05-07T06:48:02.500Z,99.90
2023-05-07T06:50:29.333Z,99.90
2023-05-07T06:52:56.162Z,99.90
2023-05-07T06:55:23.045Z,99.90
2023-05-07T06:57:49.948Z,99.90
2023-05-07T07:00:17.313Z,99.90
2023-05-07T07:02:44.598Z,99.90
2023-05-07T07:05:11.731Z,99.90
2023-05-07T07:07:38.716Z,99.90
2023-05-07T07:10:06.346Z,99.90
2023-05-07T07:12:33.395Z,99.90
2023-05-07T07:15:00.596Z,99.90
2023-05-07T07:17:27.523Z,99.90
2023-05-07T07:19:54.400Z,99.90
2023-05-07T07:22:21.258Z,99.90
2023-05-07T07:24:48.338Z,99.90
2023-05-07T07:27:15.221Z,99.90
2023-05-07T07:29:42.117Z,99.90
2023-05-07T07:32:09.641Z,99.90
2023-05-07T07:34:36.717Z,99.90
2023-05-07T07:37:06.393Z,99.90
2023-05-07T07:39:38.654Z,99.90
2023-05-07T07:42:06.153Z,99.90
2023-05-07T07:44:33.071Z,99.90
2023-05-07T07:47:00.193Z,99.90
2023-05-07T07:49:27.681Z,99.90
2023-05-07T07:51:54.824Z,99.90
2023-05-07T07:54:21.809Z,99.90
2023-05-07T07:56:48.771Z,99.90
2023-05-07T07:59:18.675Z,99.90
2023-05-07T08:01:46.160Z,99.90
2023-05-07T08:04:13.296Z,99.90
2023-05-07T08:06:40.398Z,99.90
2023-05-07T08:09:07.219Z,99.90
2023-05-07T08:11:34.147Z,99.90
2023-05-07T08:14:01.679Z,99.90
2023-05-07T08:16:31.010Z,99.90
2023-05-07T08:18:58.060Z,99.90
2023-05-07T08:21:25.039Z,99.90
2023-05-07T08:23:51.903Z,99.90
2023-05-07T08:26:18.718Z,99.90
2023-05-07T08:28:46.224Z,99.90
2023-05-07T08:31:13.092Z,99.90
2023-05-07T08:33:40.119Z,99.90
2023-05-07T08:36:07.135Z,99.90
2023-05-07T08:38:34.079Z,99.90
2023-05-07T08:41:01.027Z,99.90
2023-05-07T08:43:29.035Z,99.90
2023-05-07T08:45:58.131Z,99.90
2023-05-07T08:48:28.748Z,99.90
2023-05-07T08:50:56.483Z,99.90
2023-05-07T08:53:23.335Z,99.90
2023-05-07T08:55:50.389Z,99.90
2023-05-07T08:58:17.343Z,99.90
2023-05-07T09:00:44.827Z,99.90
2023-05-07T09:03:13.727Z,99.90
2023-05-07T09:05:41.288Z,99.90
2023-05-07T09:08:09.250Z,99.90
2023-05-07T09:10:36.508Z,99.90
2023-05-07T09:13:05.222Z,99.90
2023-05-07T09:15:32.614Z,99.90
2023-05-07T09:18:02.718Z,99.90
2023-05-07T09:20:32.237Z,99.90
2023-05-07T09:22:59.413Z,99.90
2023-05-07T09:25:33.654Z,99.90
2023-05-07T09:28:01.843Z,99.90
2023-05-07T09:30:32.932Z,99.90
2023-05-07T09:33:01.401Z,99.90
2023-05-07T09:35:28.672Z,99.90
2023-05-07T09:37:57.894Z,99.90
2023-05-07T09:40:27.500Z,99.90
2023-05-07T09:42:55.109Z,99.90
2023-05-07T09:45:29.720Z,99.90
2023-05-07T09:47:58.327Z,99.90
2023-05-07T09:50:29.451Z,99.90
2023-05-07T09:52:57.836Z,99.90
2023-05-07T09:55:25.078Z,99.90
2023-05-07T09:57:53.691Z,99.90
2023-05-07T10:00:22.517Z,99.90
2023-05-07T10:02:53.700Z,99.90
2023-05-07T10:05:24.053Z,99.90
2023-05-07T10:07:54.501Z,98.80
2023-05-07T10:10:22.049Z,95.60
2023-05-07T10:12:49.497Z,94.30
2023-05-07T10:15:16.550Z,94.90
2023-05-07T10:17:43.524Z,99.20
2023-05-07T10:20:10.782Z,96.20
2023-05-07T10:22:44.978Z,95.70
2023-05-07T10:25:29.632Z,91.70
2023-05-07T10:28:00.976Z,93.10
2023-05-07T10:30:49.192Z,91.80
2023-05-07T10:33:21.560Z,87.80
2023-05-07T10:35:49.340Z,86.80
2023-05-07T10:38:16.672Z,92.50
2023-05-07T10:40:47.723Z,90.20
2023-05-07T10:43:15.588Z,91.40
2023-05-07T10:45:42.834Z,87.30
2023-05-07T10:48:29.745Z,79.30
2023-05-07T10:51:20.616Z,83.10
2023-05-07T10:53:47.463Z,82.00
2023-05-07T10:56:20.213Z,84.60
2023-05-07T10:58:47.137Z,77.70
2023-05-07T11:01:15.995Z,79.40
2023-05-07T11:04:17.045Z,81.20
2023-05-07T11:07:10.057Z,80.00
2023-05-07T11:10:02.717Z,84.40
2023-05-07T11:12:39.542Z,82.70
2023-05-07T11:15:14.501Z,69.60
2023-05-07T11:17:55.947Z,76.00
2023-05-07T11:20:54.893Z,63.30
2023-05-07T11:23:38.300Z,63.90
2023-05-07T11:26:10.044Z,59.10
2023-05-07T11:28:41.543Z,56.50
2023-05-07T11:31:09.225Z,64.30
2023-05-07T11:33:37.164Z,64.40
2023-05-07T11:36:05.987Z,65.00
2023-05-07T11:38:37.484Z,60.60
2023-05-07T11:41:08.131Z,53.30
2023-05-07T11:43:36.792Z,54.70
2023-05-07T11:46:11.628Z,66.70
2023-05-07T11:48:40.007Z,58.20
2023-05-07T11:51:13.211Z,55.50
2023-05-07T11:53:41.701Z,53.60
2023-05-07T11:56:14.030Z,53.60
2023-05-07T11:58:42.132Z,59.40
2023-05-07T12:01:10.653Z,57.40
2023-05-07T12:03:38.820Z,56.40
2023-05-07T12:06:09.810Z,61.50
2023-05-07T12:08:41.851Z,65.20
2023-05-07T12:11:12.391Z,65.80
2023-05-07T12:13:39.485Z,62.60
2023-05-07T12:16:08.152Z,62.40
2023-05-07T12:18:36.492Z,67.90
2023-05-07T12:21:05.140Z,60.10
2023-05-07T12:23:32.676Z,62.80
2023-05-07T12:26:00.941Z,63.50
2023-05-07T12:28:27.828Z,55.30
2023-05-07T12:30:55.127Z,57.00
2023-05-07T12:33:27.035Z,54.20
2023-05-07T12:35:56.313Z,56.20
2023-05-07T12:38:23.661Z,56.40
2023-05-07T12:40:54.699Z,53.60
2023-05-07T12:43:26.538Z,51.60
2023-05-07T12:45:56.356Z,54.40
2023-05-07T12:48:24.551Z,55.60
2023-05-07T12:50:52.491Z,55.90
2023-05-07T12:53:22.515Z,54.90
2023-05-07T12:55:53.609Z,55.00
2023-05-07T12:58:24.458Z,57.80
2023-05-07T13:00:52.254Z,61.60
2023-05-07T13:03:25.117Z,61.60
2023-05-07T13:05:53.371Z,59.50
2023-05-07T13:08:30.521Z,61.60
2023-05-07T13:10:59.256Z,67.20
2023-05-07T13:13:26.409Z,65.90
2023-05-07T13:15:53.316Z,66.60
2023-05-07T13:18:20.411Z,63.20
2023-05-07T13:20:47.264Z,66.30
2023-05-07T13:23:14.183Z,68.00
2023-05-07T13:25:41.174Z,72.40
2023-05-07T13:28:11.257Z,76.30
2023-05-07T13:30:38.576Z,79.20
2023-05-07T13:33:05.488Z,71.10
2023-05-07T13:35:32.367Z,76.50
2023-05-07T13:37:59.393Z,80.20
2023-05-07T13:40:26.577Z,76.70
2023-05-07T13:42:54.205Z,80.10
2023-05-07T13:45:21.196Z,76.40
2023-05-07T13:47:50.045Z,80.70
2023-05-07T13:50:17.142Z,81.30
2023-05-07T13:52:52.023Z,83.10
2023-05-07T13:55:20.142Z,85.50
2023-05-07T13:57:47.715Z,85.10
2023-05-07T14:00:15.489Z,88.70
2023-05-07T14:02:43.180Z,82.20
2023-05-07T14:05:10.929Z,85.20
2023-05-07T14:07:38.274Z,87.20
2023-05-07T14:10:05.814Z,86.50
2023-05-07T14:12:33.940Z,89.70
2023-05-07T14:15:00.900Z,87.50
2023-05-07T14:17:28.344Z,85.20
2023-05-07T14:19:56.361Z,87.10
2023-05-07T14:22:23.942Z,89.70
2023-05-07T14:25:03.225Z,87.90
2023-05-07T14:27:33.302Z,90.30
2023-05-07T14:30:00.353Z,88.30
2023-05-07T14:32:27.278Z,90.00
2023-05-07T14:34:54.520Z,86.40
2023-05-07T14:37:21.523Z,90.10
2023-05-07T14:39:51.024Z,91.30
2023-05-07T14:42:18.693Z,92.10
2023-05-07T14:44:46.564Z,93.40
2023-05-07T14:47:14.182Z,95.20
2023-05-07T14:49:42.312Z,92.80
2023-05-07T14:52:11.223Z,94.20
2023-05-07T14:54:39.520Z,94.80
2023-05-07T14:57:07.884Z,95.20
2023-05-07T14:59:35.144Z,95.00
2023-05-07T15:02:05.278Z,95.90
2023-05-07T15:04:33.986Z,96.20
2023-05-07T15:07:01.596Z,96.20
2023-05-07T15:09:28.534Z,96.60
2023-05-07T15:11:55.482Z,96.90
2023-05-07T15:14:23.159Z,97.50
2023-05-07T15:16:51.031Z,97.00
2023-05-07T15:19:18.161Z,98.50
2023-05-07T15:21:45.359Z,98.10
2023-05-07T15:24:12.209Z,98.40
2023-05-07T15:26:39.089Z,97.90
2023-05-07T15:29:11.054Z,98.50
2023-05-07T15:31:41.230Z,98.00
2023-05-07T15:34:08.228Z,99.90
2023-05-07T15:36:35.072Z,98.00
2023-05-07T15:39:03.991Z,99.10
2023-05-07T15:41:31.198Z,99.90
2023-05-07T15:43:58.275Z,99.60
2023-05-07T15:46:26.961Z,99.90
2023-05-07T15:48:54.563Z,99.90
2023-05-07T15:51:22.787Z,99.90
2023-05-07T15:53:50.300Z,99.90
2023-05-07T15:56:17.412Z,99.90
2023-05-07T15:58:44.229Z,99.90
2023-05-07T16:01:11.686Z,99.90
2023-05-07T16:03:40.361Z,99.90
2023-05-07T16:06:07.606Z,99.90
2023-05-07T16:08:34.634Z,99.90
2023-05-07T16:11:01.477Z,99.90
2023-05-07T16:13:28.713Z,99.90
2023-05-07T16:15:59.782Z,99.90
2023-05-07T16:18:26.770Z,99.90
2023-05-07T16:20:54.538Z,99.90
2023-05-07T16:23:21.692Z,99.90
2023-05-07T16:25:49.710Z,99.90
2023-05-07T16:28:17.317Z,99.90
2023-05-07T16:30:44.704Z,99.90
2023-05-07T16:33:11.587Z,99.90
2023-05-07T16:35:38.569Z,99.90
2023-05-07T16:38:10.112Z,99.90
2023-05-07T16:40:41.006Z,99.90
2023-05-07T16:43:08.062Z,99.90
2023-05-07T16:45:35.246Z,99.90
2023-05-07T16:48:03.457Z,99.90
2023-05-07T16:50:30.510Z,99.90
2023-05-07T16:52:57.571Z,99.90
2023-05-07T16:55:24.758Z,99.90
2023-05-07T16:57:51.773Z,99.90
2023-05-07T17:00:19.372Z,99.90
2023-05-07T17:02:47.181Z,99.90
2023-05-07T17:05:14.607Z,99.90
2023-05-07T17:07:41.930Z,99.90
2023-05-07T17:10:09.184Z,99.90
2023-05-07T17:12:38.091Z,99.90
2023-05-07T17:15:05.642Z,99.90
2023-05-07T17:17:32.916Z,99.90
2023-05-07T17:20:00.216Z,99.90
2023-05-07T17:22:27.656Z,99.90
2023-05-07T17:24:54.587Z,99.90
2023-05-07T17:27:21.525Z,99.90
2023-05-07T17:29:48.367Z,99.90
2023-05-07T17:32:15.488Z,99.90
2023-05-07T17:34:42.667Z,99.90
2023-05-07T17:37:09.817Z,99.90
2023-05-07T17:39:36.691Z,99.90
2023-05-07T17:42:03.958Z,99.90
2023-05-07T17:44:31.000Z,99.90
2023-05-07T17:46:58.363Z,99.90
2023-05-07T17:49:25.519Z,99.90
2023-05-07T17:51:55.325Z,99.90
2023-05-07T17:54:24.288Z,99.90
2023-05-07T17:56:51.605Z,99.90
2023-05-07T17:59:18.924Z,99.90
2023-05-07T18:01:45.839Z,99.90
2023-05-07T18:04:12.767Z,99.90
2023-05-07T18:06:41.711Z,99.90
2023-05-07T18:09:08.759Z,99.90
2023-05-07T18:11:37.536Z,99.90
2023-05-07T18:14:04.485Z,99.90
2023-05-07T18:16:31.782Z,99.90
2023-05-07T18:18:58.668Z,99.90
2023-05-07T18:21:25.706Z,99.90
2023-05-07T18:23:52.665Z,99.90
2023-05-07T18:26:19.615Z,99.90
2023-05-07T18:28:46.687Z,99.90
2023-05-07T18:31:13.674Z,99.90
2023-05-07T18:33:40.933Z,99.90
2023-05-07T18:36:08.271Z,99.90
2023-05-07T18:38:35.465Z,99.90
2023-05-07T18:41:05.289Z,99.90
2023-05-07T18:43:34.322Z,99.90
2023-05-07T18:46:01.601Z,99.90
2023-05-07T18:48:28.594Z,99.90
2023-05-07T18:50:55.619Z,99.90
2023-05-07T18:53:22.795Z,99.90
2023-05-07T18:55:50.972Z,99.90
2023-05-07T18:58:19.881Z,99.90
2023-05-07T19:00:47.993Z,99.90
2023-05-07T19:03:15.913Z,99.90
2023-05-07T19:05:44.043Z,99.90
2023-05-07T19:08:11.460Z,99.90
2023-05-07T19:10:38.385Z,99.90
2023-05-07T19:13:05.852Z,99.90
2023-05-07T19:15:32.862Z,99.90
2023-05-07T19:17:59.798Z,99.90
2023-05-07T19:20:26.898Z,99.90
2023-05-07T19:22:53.827Z,99.90
2023-05-07T19:25:20.707Z,99.90
2023-05-07T19:27:48.163Z,99.90
2023-05-07T19:30:15.246Z,99.90
2023-05-07T19:32:42.267Z,99.90
2023-05-07T19:35:09.766Z,99.90
2023-05-07T19:37:36.844Z,99.90
2023-05-07T19:40:06.188Z,99.90
2023-05-07T19:42:33.022Z,99.90
2023-05-07T19:45:00.275Z,99.90
2023-05-07T19:47:27.593Z,99.90
2023-05-07T19:49:54.894Z,99.90
2023-05-07T19:52:21.849Z,99.90
2023-05-07T19:54:48.697Z,99.90
2023-05-07T19:57:17.552Z,99.90
2023-05-07T19:59:46.314Z,99.90
2023-05-07T20:02:13.177Z,99.90
2023-05-07T20:04:40.097Z,99.90
2023-05-07T20:07:07.680Z,99.90
2023-05-07T20:09:34.619Z,99.90
2023-05-07T20:12:01.550Z,99.90
2023-05-07T20:14:28.618Z,99.90
2023-05-07T20:16:55.816Z,99.90
2023-05-07T20:19:22.671Z,99.90
2023-05-07T20:21:50.067Z,99.90
2023-05-07T20:24:19.187Z,99.90
2023-05-07T20:26:46.911Z,99.90
2023-05-07T20:29:13.867Z,99.90
2023-05-07T20:31:40.695Z,99.90
2023-05-07T20:34:08.121Z,99.90
2023-05-07T20:36:35.963Z,99.90
2023-05-07T20:39:04.300Z,99.90
2023-05-07T20:41:31.219Z,99.90
2023-05-07T20:43:58.527Z,99.90
2023-05-07T20:46:27.407Z,99.90
2023-05-07T20:48:55.006Z,99.90
2023-05-07T20:51:21.863Z,99.90
2023-05-07T20:53:48.698Z,99.90
2023-05-07T20:56:16.046Z,99.90
2023-05-07T20:58:43.367Z,99.90
2023-05-07T21:01:10.470Z,99.90
2023-05-07T21:03:37.358Z,99.90
2023-05-07T21:06:04.489Z,99.90
2023-05-07T21:08:31.815Z,99.90
2023-05-07T21:10:59.632Z,99.90
2023-05-07T21:13:26.695Z,99.90
2023-05-07T21:15:53.699Z,99.90
2023-05-07T21:18:20.669Z,99.90
2023-05-07T21:20:48.019Z,99.90
2023-05-07T21:23:14.993Z,99.90
2023-05-07T21:25:42.943Z,99.90
2023-05-07T21:28:09.817Z,99.90
2023-05-07T21:30:37.319Z,99.90
2023-05-07T21:33:06.216Z,99.90
2023-05-07T21:35:38.755Z,99.90
2023-05-07T21:38:06.104Z,99.90
2023-05-07T21:40:33.215Z,99.90
2023-05-07T21:43:01.090Z,99.90
2023-05-07T21:45:28.077Z,99.90
2023-05-07T21:47:55.447Z,99.90
2023-05-07T21:50:22.721Z,99.90
2023-05-07T21:52:50.085Z,99.90
2023-05-07T21:55:20.080Z,99.90
2023-05-07T21:58:01.465Z,99.90
2023-05-07T22:00:32.917Z,99.90
2023-05-07T22:03:00.506Z,99.90
2023-05-07T22:05:28.051Z,99.90
2023-05-07T22:07:54.942Z,99.90
2023-05-07T22:10:22.706Z,99.90
2023-05-07T22:12:50.118Z,99.90
2023-05-07T22:15:17.452Z,99.90
2023-05-07T22:17:44.383Z,99.90
2023-05-07T22:20:12.114Z,99.90
2023-05-07T22:22:53.556Z,99.90
2023-05-07T22:25:24.539Z,99.90
2023-05-07T22:27:51.839Z,99.90
2023-05-07T22:30:19.125Z,99.90
2023-05-07T22:32:46.160Z,99.90
2023-05-07T22:35:13.135Z,99.90
2023-05-07T22:37:40.143Z,99.90
2023-05-07T22:40:07.557Z,99.90
2023-05-07T22:42:34.464Z,99.90
2023-05-07T22:45:01.388Z,99.90
2023-05-07T22:47:31.602Z,99.90
2023-05-07T22:49:58.963Z,99.90
2023-05-07T22:52:25.911Z,99.90
2023-05-07T22:54:52.998Z,99.90
2023-05-07T22:57:20.093Z,99.90
2023-05-07T22:59:47.314Z,99.90
2023-05-07T23:02:14.240Z,99.90
2023-05-07T23:04:41.166Z,99.90
2023-05-07T23:07:07.991Z,99.90
2023-05-07T23:09:35.403Z,99.90
2023-05-07T23:12:03.221Z,99.90
2023-05-07T23:14:30.127Z,99.90
2023-05-07T23:16:57.513Z,99.90
2023-05-07T23:19:24.396Z,99.90
2023-05-07T23:21:51.749Z,99.90
2023-05-07T23:24:18.802Z,99.90
2023-05-07T23:26:45.602Z,99.90
2023-05-07T23:29:12.446Z,99.90
2023-05-07T23:31:39.520Z,99.90
2023-05-07T23:34:06.482Z,99.90
2023-05-07T23:36:33.971Z,99.90
2023-05-07T23:39:00.802Z,99.90
2023-05-07T23:41:27.738Z,99.90
2023-05-07T23:43:54.629Z,99.90
2023-05-07T23:46:21.657Z,99.90
2023-05-07T23:48:48.616Z,99.90
2023-05-07T23:51:15.418Z,99.90
2023-05-07T23:53:42.272Z,99.90
2023-05-07T23:56:09.096Z,99.90
2023-05-07T23:58:36.080Z,99.90
